Time;durP1;ratioP1;P1;durP2;ratioP2;P2;SDS_P1;SDS_P2;PMS_P1;PMS_P2;Temp;Humidity;BMP_temperature;BMP_pressure;BME280_temperature;BME280_humidity;BME280_pressure;Samples;Min_cycle;Max_cycle;Signal;HPM_P1;HPM_P2
2022/07/23 00:00:46;;;;;;;;;;;;;;;17.65;57.82;97456.08;110531;1244;59693;-69
2022/07/23 00:03:16;;;;;;;;;;;;;;;17.56;57.99;97458.20;110576;1244;71512;-69
2022/07/23 00:05:45;;;;;;;;;;;;;;;17.46;62.27;97459.94;110237;1247;67833;-69
2022/07/23 00:08:14;;;;;;;;;;;;;;;17.39;62.93;97459.60;110263;1245;68449;-69
2022/07/23 00:10:44;;;;;;;;;;;;;;;17.34;63.04;97455.38;110487;1244;59748;-69
2022/07/23 00:13:14;;;;;;;;;;;;;;;17.28;63.05;97453.39;110572;1244;59619;-68
2022/07/23 00:15:43;;;;;;;;;;;;;;;17.25;62.02;97447.52;110252;1245;71518;-69
2022/07/23 00:18:14;;;;;;;;;;;;;;;17.23;62.01;97446.90;110519;1244;68550;-71
2022/07/23 00:20:45;;;;;;;;;;;;;;;17.22;63.31;97460.59;110598;1244;68612;-68
2022/07/23 00:23:15;;;;;;;;;;;;;;;17.19;62.78;97459.77;110556;1244;59726;-70
2022/07/23 00:25:45;;;;;;;;;;;;;;;17.17;64.30;97458.90;110519;1244;59745;-70
2022/07/23 00:28:14;;;;;;;;;;;;;;;17.17;64.64;97461.45;110517;1243;70729;-69
2022/07/23 00:30:45;;;;;;;;;;;;;;;17.19;64.80;97458.41;110283;1245;68556;-68
2022/07/23 00:33:14;;;;;;;;;;;;;;;17.17;64.02;97455.08;110239;1244;69391;-69
2022/07/23 00:35:44;;;;;;;;;;;;;;;17.15;65.07;97459.18;110549;1244;59668;-70
2022/07/23 00:38:14;;;;;;;;;;;;;;;17.12;64.97;97455.79;110579;1244;59590;-68
2022/07/23 00:40:43;;;;;;;;;;;;;;;17.10;62.24;97457.36;110462;1244;70597;-69
2022/07/23 00:43:13;;;;;;;;;;;;;;;17.05;61.07;97454.01;110216;1245;67704;-68
2022/07/23 00:45:43;;;;;;;;;;;;;;;16.98;61.29;97454.86;110521;1244;69267;-70
2022/07/23 00:48:12;;;;;;;;;;;;;;;16.92;61.05;97456.48;110539;1244;59647;-71
2022/07/23 00:50:42;;;;;;;;;;;;;;;16.88;61.73;97458.33;110458;1244;59686;-71
2022/07/23 00:53:14;;;;;;;;;;;;;;;16.85;61.01;97458.73;110274;1245;71510;-70
2022/07/23 00:55:44;;;;;;;;;;;;;;;16.80;60.95;97454.41;110250;1245;68626;-69
2022/07/23 00:58:14;;;;;;;;;;;;;;;16.73;61.92;97456.41;110259;1247;69228;-69
2022/07/23 01:00:44;;;;;;;;;;;;;;;16.59;65.24;97459.70;110596;1244;59740;-69
2022/07/23 01:03:14;;;;;;;;;;;;;;;16.40;67.14;97460.77;110218;1247;59622;-69
2022/07/23 01:05:45;;;;;;;;;;;;;;;16.27;67.36;97462.79;110276;1244;70848;-69
2022/07/23 01:08:16;;;;;;;;;;;;;;;16.14;67.05;97458.34;110595;1244;67495;-70
2022/07/23 01:10:51;;;;;;;;;;;;;;;16.06;67.53;97462.29;110212;1247;69297;-69
2022/07/23 01:13:21;;;;;;;;;;;;;;;15.99;68.24;97458.50;110321;1244;59751;-68
2022/07/23 01:15:50;;;;;;;;;;;;;;;15.92;68.63;97455.51;110270;1244;59766;-69
2022/07/23 01:18:21;;;;;;;;;;;;;;;15.84;69.42;97459.59;110254;1246;70788;-68
2022/07/23 01:20:52;;;;;;;;;;;;;;;15.80;68.14;97460.66;110253;1245;67697;-68
2022/07/23 01:23:22;;;;;;;;;;;;;;;15.79;68.04;97461.26;110206;1247;69289;-69
2022/07/23 01:25:57;;;;;;;;;;;;;;;15.81;69.57;97460.09;110560;1244;59753;-69
2022/07/23 01:28:27;;;;;;;;;;;;;;;15.83;69.21;97461.86;110230;1247;59688;-72
2022/07/23 01:30:58;;;;;;;;;;;;;;;15.85;69.32;97461.30;110265;1247;71521;-69
2022/07/23 01:33:33;;;;;;;;;;;;;;;15.87;68.98;97468.65;110247;1245;67715;-68
2022/07/23 01:36:03;;;;;;;;;;;;;;;15.90;68.09;97464.84;110465;1244;69481;-69
2022/07/23 01:38:34;;;;;;;;;;;;;;;15.93;69.52;97466.30;110523;1244;59627;-68
2022/07/23 01:41:06;;;;;;;;;;;;;;;15.93;67.63;97466.63;110261;1244;59689;-69
2022/07/23 01:43:37;;;;;;;;;;;;;;;15.90;66.89;97469.98;110266;1247;70644;-67
2022/07/23 01:46:06;;;;;;;;;;;;;;;15.85;69.60;97469.88;110281;1245;68462;-67
2022/07/23 01:48:42;;;;;;;;;;;;;;;15.82;69.67;97467.04;110214;1245;68471;-73
2022/07/23 01:51:31;;;;;;;;;;;;;;;15.79;68.04;97469.69;110501;1244;59794;-69
2022/07/23 01:54:09;;;;;;;;;;;;;;;15.77;66.25;97469.51;110280;1245;59676;-68
2022/07/23 01:56:40;;;;;;;;;;;;;;;15.74;65.25;97465.90;110213;1247;71517;-68
2022/07/23 01:59:09;;;;;;;;;;;;;;;15.71;65.44;97463.77;110246;1247;68545;-69
2022/07/23 02:01:38;;;;;;;;;;;;;;;15.67;68.34;97461.15;110178;1247;69412;-68
2022/07/23 02:04:09;;;;;;;;;;;;;;;15.65;71.53;97462.89;110489;1244;59706;-68
2022/07/23 02:06:39;;;;;;;;;;;;;;;15.65;71.85;97459.96;110205;1247;59751;-68
2022/07/23 02:09:10;;;;;;;;;;;;;;;15.64;72.27;97460.02;110253;1245;71403;-69
2022/07/23 02:11:41;;;;;;;;;;;;;;;15.63;72.60;97462.38;110273;1247;67746;-68
2022/07/23 02:14:11;;;;;;;;;;;;;;;15.58;71.95;97461.25;110284;1247;69384;-69
2022/07/23 02:16:41;;;;;;;;;;;;;;;15.53;71.13;97469.28;110429;1244;59697;-68
2022/07/23 02:19:12;;;;;;;;;;;;;;;15.47;72.28;97466.83;110336;1246;59691;-68
2022/07/23 02:21:42;;;;;;;;;;;;;;;15.43;72.77;97471.30;110386;1244;70710;-68
2022/07/23 02:24:11;;;;;;;;;;;;;;;15.42;71.82;97472.39;110365;1245;67703;-68
2022/07/23 02:26:42;;;;;;;;;;;;;;;15.42;70.96;97470.80;110161;1247;68464;-68
2022/07/23 02:29:12;;;;;;;;;;;;;;;15.42;69.93;97468.93;110160;1245;59740;-68
2022/07/23 02:31:41;;;;;;;;;;;;;;;15.41;71.11;97467.63;110523;1244;59679;-67
2022/07/23 02:34:14;;;;;;;;;;;;;;;15.40;72.81;97466.25;110270;1245;71514;-67
2022/07/23 02:36:44;;;;;;;;;;;;;;;15.39;72.98;97465.63;110259;1244;67885;-69
2022/07/23 02:39:15;;;;;;;;;;;;;;;15.40;73.11;97467.36;110214;1245;69091;-70
2022/07/23 02:41:45;;;;;;;;;;;;;;;15.40;72.27;97469.60;110011;1249;59776;-69
2022/07/23 02:44:16;;;;;;;;;;;;;;;15.42;73.07;97474.72;110374;1244;59808;-69
2022/07/23 02:46:48;;;;;;;;;;;;;;;15.43;72.71;97474.07;110187;1244;71521;-70
2022/07/23 02:49:18;;;;;;;;;;;;;;;15.43;72.52;97472.85;110130;1248;68592;-70
2022/07/23 02:51:48;;;;;;;;;;;;;;;15.45;72.81;97473.89;110254;1244;68511;-69
2022/07/23 02:54:17;;;;;;;;;;;;;;;15.45;71.78;97471.42;110103;1247;59650;-69
2022/07/23 02:56:47;;;;;;;;;;;;;;;15.46;72.31;97476.77;110527;1245;59681;-68
2022/07/23 02:59:17;;;;;;;;;;;;;;;15.46;71.55;97481.17;110143;1248;70646;-69
2022/07/23 03:01:47;;;;;;;;;;;;;;;15.46;72.25;97482.92;110191;1247;68575;-68
2022/07/23 03:04:17;;;;;;;;;;;;;;;15.47;72.19;97479.80;110272;1244;69366;-69
2022/07/23 03:06:47;;;;;;;;;;;;;;;15.48;70.37;97478.34;110215;1247;59672;-69
2022/07/23 03:09:17;;;;;;;;;;;;;;;15.47;68.53;97474.90;110290;1245;59697;-69
2022/07/23 03:11:49;;;;;;;;;;;;;;;15.45;68.74;97478.77;110317;1247;71436;-67
2022/07/23 03:14:23;;;;;;;;;;;;;;;15.45;72.49;97484.27;110327;1247;68523;-68
2022/07/23 03:16:53;;;;;;;;;;;;;;;15.45;73.16;97487.42;110170;1247;68543;-70
2022/07/23 03:19:23;;;;;;;;;;;;;;;15.46;72.44;97488.35;110171;1247;59750;-67
2022/07/23 03:21:52;;;;;;;;;;;;;;;15.49;72.70;97489.13;110360;1247;59676;-68
2022/07/23 03:24:23;;;;;;;;;;;;;;;15.53;71.48;97492.42;110544;1244;70974;-67
2022/07/23 03:26:52;;;;;;;;;;;;;;;15.58;70.52;97497.08;110256;1247;67875;-69
2022/07/23 03:29:21;;;;;;;;;;;;;;;15.66;70.64;97500.23;110529;1245;69218;-69
2022/07/23 03:31:51;;;;;;;;;;;;;;;15.72;69.14;97500.55;110201;1247;59627;-68
2022/07/23 03:34:21;;;;;;;;;;;;;;;15.76;70.00;97498.23;110302;1247;59749;-68
2022/07/23 03:36:51;;;;;;;;;;;;;;;15.78;70.79;97499.30;110409;1244;70581;-70
2022/07/23 03:39:21;;;;;;;;;;;;;;;15.80;71.03;97500.01;110218;1247;67161;-69
2022/07/23 03:41:50;;;;;;;;;;;;;;;15.81;70.99;97507.48;110183;1247;69328;-71
2022/07/23 03:44:19;;;;;;;;;;;;;;;15.75;71.23;97506.59;110516;1244;59763;-68
2022/07/23 03:46:49;;;;;;;;;;;;;;;15.75;71.54;97508.51;110579;1244;59669;-67
2022/07/23 03:49:19;;;;;;;;;;;;;;;15.79;71.43;97508.34;110258;1247;71507;-70
2022/07/23 03:51:49;;;;;;;;;;;;;;;15.83;71.73;97509.58;110374;1244;68595;-68
2022/07/23 03:54:19;;;;;;;;;;;;;;;15.82;71.73;97509.83;109979;1247;67735;-68
2022/07/23 03:56:48;;;;;;;;;;;;;;;15.82;71.86;97508.45;110044;1248;59742;-68
2022/07/23 03:59:17;;;;;;;;;;;;;;;15.87;71.43;97511.02;110577;1244;59647;-70
2022/07/23 04:01:51;;;;;;;;;;;;;;;15.87;71.59;97513.80;110273;1244;71427;-68
2022/07/23 04:04:21;;;;;;;;;;;;;;;15.90;71.76;97511.89;110229;1244;68648;-70
2022/07/23 04:06:50;;;;;;;;;;;;;;;15.99;71.90;97511.07;110279;1247;69384;-67
2022/07/23 04:09:19;;;;;;;;;;;;;;;16.10;71.37;97512.38;110388;1244;59721;-67
2022/07/23 04:11:49;;;;;;;;;;;;;;;16.20;70.86;97515.84;110297;1247;59717;-67
2022/07/23 04:14:18;;;;;;;;;;;;;;;16.33;70.71;97518.43;110244;1244;70596;-69
2022/07/23 04:16:47;;;;;;;;;;;;;;;16.48;70.04;97518.73;110227;1247;68415;-68
2022/07/23 04:19:18;;;;;;;;;;;;;;;16.64;68.49;97519.20;110269;1247;69224;-70
2022/07/23 04:21:56;;;;;;;;;;;;;;;16.79;67.50;97515.16;110270;1246;59671;-69
2022/07/23 04:24:25;;;;;;;;;;;;;;;16.93;68.14;97522.41;110230;1247;59745;-68
2022/07/23 04:26:54;;;;;;;;;;;;;;;17.05;67.55;97522.27;110447;1245;70582;-71
2022/07/23 04:29:23;;;;;;;;;;;;;;;17.23;67.09;97519.08;110177;1245;68008;-67
2022/07/23 04:31:52;;;;;;;;;;;;;;;17.46;65.91;97520.20;110429;1244;68242;-70
2022/07/23 04:34:22;;;;;;;;;;;;;;;17.64;65.45;97522.95;110198;1247;59713;-69
2022/07/23 04:36:51;;;;;;;;;;;;;;;17.78;65.62;97516.45;110215;1247;59645;-70
2022/07/23 04:39:20;;;;;;;;;;;;;;;17.90;65.29;97522.14;110307;1245;70784;-68
2022/07/23 04:41:49;;;;;;;;;;;;;;;17.97;64.89;97528.36;110445;1244;68695;-67
2022/07/23 04:44:18;;;;;;;;;;;;;;;17.95;65.25;97530.52;110401;1244;69360;-66
2022/07/23 04:46:48;;;;;;;;;;;;;;;17.95;65.27;97531.67;110203;1247;59674;-67
2022/07/23 04:49:18;;;;;;;;;;;;;;;18.04;65.61;97533.09;110145;1247;59749;-68
2022/07/23 04:51:47;;;;;;;;;;;;;;;18.17;64.75;97532.23;109996;1248;70571;-68
2022/07/23 04:54:17;;;;;;;;;;;;;;;18.35;64.77;97533.93;110359;1245;68622;-67
2022/07/23 04:56:46;;;;;;;;;;;;;;;18.54;63.91;97532.70;110209;1247;69361;-68
2022/07/23 04:59:15;;;;;;;;;;;;;;;18.72;63.77;97532.10;110245;1245;59680;-69
2022/07/23 05:01:45;;;;;;;;;;;;;;;18.85;63.84;97532.02;110236;1247;59679;-71
2022/07/23 05:04:14;;;;;;;;;;;;;;;18.95;63.81;97530.58;110196;1247;71342;-66
2022/07/23 05:06:44;;;;;;;;;;;;;;;19.07;63.23;97531.30;109914;1250;67807;-68
2022/07/23 05:09:13;;;;;;;;;;;;;;;19.15;62.79;97529.23;110390;1245;69023;-69
2022/07/23 05:11:43;;;;;;;;;;;;;;;19.28;62.54;97527.60;110203;1247;59792;-69
2022/07/23 05:14:12;;;;;;;;;;;;;;;19.51;62.39;97524.95;110204;1247;59687;-68
2022/07/23 05:16:42;;;;;;;;;;;;;;;19.83;61.62;97521.69;110403;1244;70803;-67
2022/07/23 05:19:16;;;;;;;;;;;;;;;20.24;61.18;97524.88;110328;1246;68652;-67
2022/07/23 05:21:45;;;;;;;;;;;;;;;20.70;59.29;97523.09;110408;1245;68454;-73
2022/07/23 05:24:19;;;;;;;;;;;;;;;21.30;61.12;97524.58;110246;1247;59754;-69
2022/07/23 05:26:49;;;;;;;;;;;;;;;21.83;59.03;97521.30;110390;1244;59680;-71
2022/07/23 05:29:18;;;;;;;;;;;;;;;22.33;56.24;97519.08;110184;1247;71643;-70
2022/07/23 05:31:47;;;;;;;;;;;;;;;22.77;56.34;97520.77;110281;1247;68323;-67
2022/07/23 05:34:16;;;;;;;;;;;;;;;23.17;55.52;97524.60;110478;1245;68667;-67
2022/07/23 05:36:48;;;;;;;;;;;;;;;23.59;52.66;97518.34;110388;1247;59719;-66
2022/07/23 05:39:18;;;;;;;;;;;;;;;23.90;52.12;97518.50;110271;1247;59644;-69
2022/07/23 05:41:46;;;;;;;;;;;;;;;24.02;48.93;97514.00;110176;1248;71357;-70
2022/07/23 05:44:15;;;;;;;;;;;;;;;24.07;48.58;97513.39;110219;1248;67726;-72
2022/07/23 05:46:45;;;;;;;;;;;;;;;24.09;47.77;97511.34;110218;1247;69627;-67
2022/07/23 05:49:18;;;;;;;;;;;;;;;23.95;46.85;97518.30;110511;1244;59687;-68
2022/07/23 05:52:13;;;;;;;;;;;;;;;23.87;47.93;97519.83;110072;1247;59748;-73
2022/07/23 05:55:02;;;;;;;;;;;;;;;24.02;46.82;97514.33;110025;1247;71575;-67
2022/07/23 05:57:31;;;;;;;;;;;;;;;24.09;46.21;97517.27;110430;1244;68594;-69
2022/07/23 06:00:03;;;;;;;;;;;;;;;24.09;45.40;97511.70;110480;1244;68458;-67
2022/07/23 06:02:41;;;;;;;;;;;;;;;24.22;45.98;97509.13;110478;1244;59748;-69
2022/07/23 06:05:11;;;;;;;;;;;;;;;24.25;45.82;97512.08;110235;1247;59658;-69
2022/07/23 06:07:40;;;;;;;;;;;;;;;24.41;45.31;97514.62;110365;1246;71582;-70
2022/07/23 06:10:09;;;;;;;;;;;;;;;24.59;44.57;97519.02;110264;1247;68124;-66
2022/07/23 06:12:38;;;;;;;;;;;;;;;24.83;44.64;97516.81;110532;1244;68728;-67
2022/07/23 06:15:08;;;;;;;;;;;;;;;25.13;44.26;97516.15;110253;1247;59738;-67
2022/07/23 06:17:39;;;;;;;;;;;;;;;25.49;43.59;97520.07;110275;1248;59689;-69
2022/07/23 06:20:09;;;;;;;;;;;;;;;25.84;42.95;97512.77;110273;1247;71511;-69
2022/07/23 06:22:39;;;;;;;;;;;;;;;26.15;42.55;97509.45;110376;1248;68463;-70
2022/07/23 06:25:08;;;;;;;;;;;;;;;26.48;41.55;97511.61;110423;1245;69091;-71
2022/07/23 06:27:47;;;;;;;;;;;;;;;26.80;40.79;97512.96;110511;1244;59696;-72
2022/07/23 06:30:18;;;;;;;;;;;;;;;27.15;40.46;97510.77;110348;1247;59798;-72
2022/07/23 06:32:49;;;;;;;;;;;;;;;27.52;39.25;97507.20;110448;1245;71454;-74
2022/07/23 06:35:17;;;;;;;;;;;;;;;27.92;38.53;97500.77;110446;1244;68703;-69
2022/07/23 06:37:48;;;;;;;;;;;;;;;28.14;36.83;97495.16;110243;1247;69445;-70
2022/07/23 06:40:16;;;;;;;;;;;;;;;28.56;38.03;97492.97;110052;1247;59747;-70
2022/07/23 06:42:46;;;;;;;;;;;;;;;28.96;36.32;97497.05;110351;1247;59763;-72
2022/07/23 06:45:22;;;;;;;;;;;;;;;29.28;34.39;97490.93;110207;1247;71463;-71
2022/07/23 06:47:51;;;;;;;;;;;;;;;29.42;33.72;97493.45;110199;1248;68562;-74
2022/07/23 06:50:20;;;;;;;;;;;;;;;29.59;32.76;97493.36;110237;1248;69480;-70
2022/07/23 06:52:50;;;;;;;;;;;;;;;29.76;32.74;97493.09;110181;1247;59834;-69
2022/07/23 06:55:19;;;;;;;;;;;;;;;29.80;31.73;97492.45;110299;1247;59608;-76
2022/07/23 06:57:48;;;;;;;;;;;;;;;29.63;31.95;97496.74;110231;1247;71545;-70
2022/07/23 07:00:17;;;;;;;;;;;;;;;29.73;31.60;97496.09;110386;1245;68635;-70
2022/07/23 07:02:47;;;;;;;;;;;;;;;29.72;31.87;97498.31;109932;1251;69519;-71
2022/07/23 07:05:16;;;;;;;;;;;;;;;29.94;31.56;97498.48;110464;1244;59749;-73
2022/07/23 07:07:45;;;;;;;;;;;;;;;30.32;31.19;97500.00;110356;1245;59749;-71
2022/07/23 07:10:16;;;;;;;;;;;;;;;30.59;30.05;97504.15;110109;1245;71018;-72
2022/07/23 07:12:45;;;;;;;;;;;;;;;30.78;30.24;97501.75;110491;1247;67870;-71
2022/07/23 07:15:14;;;;;;;;;;;;;;;30.91;29.51;97499.70;110307;1247;69486;-69
2022/07/23 07:17:43;;;;;;;;;;;;;;;31.08;29.46;97499.89;110189;1245;59749;-69
2022/07/23 07:20:12;;;;;;;;;;;;;;;31.22;28.91;97497.06;110445;1247;59683;-73
2022/07/23 07:22:41;;;;;;;;;;;;;;;31.27;28.90;97499.92;110460;1247;70142;-69
2022/07/23 07:25:10;;;;;;;;;;;;;;;31.35;29.08;97503.48;110432;1245;68594;-69
2022/07/23 07:27:38;;;;;;;;;;;;;;;31.36;29.12;97506.27;110423;1244;69462;-73
2022/07/23 07:30:08;;;;;;;;;;;;;;;31.32;28.13;97504.30;110156;1247;59754;-71
2022/07/23 07:32:37;;;;;;;;;;;;;;;31.15;27.85;97500.13;110290;1247;59676;-72
2022/07/23 07:35:24;;;;;;;;;;;;;;;30.75;28.70;97495.44;110342;1245;70706;-70
2022/07/23 07:37:53;;;;;;;;;;;;;;;30.74;29.05;97495.47;110417;1247;68214;-69
2022/07/23 07:40:23;;;;;;;;;;;;;;;30.69;29.15;97495.73;109804;1246;732537;-71
2022/07/23 07:42:59;;;;;;;;;;;;;;;31.18;28.78;97493.00;110218;1247;59758;-71
2022/07/23 07:45:29;;;;;;;;;;;;;;;31.69;28.41;97496.14;110285;1248;59698;-70
2022/07/23 07:47:58;;;;;;;;;;;;;;;31.91;27.60;97495.30;110425;1247;70447;-70
2022/07/23 07:50:27;;;;;;;;;;;;;;;31.83;27.48;97495.65;110434;1247;68535;-69
2022/07/23 07:52:56;;;;;;;;;;;;;;;32.11;27.76;97495.77;110095;1248;69944;-71
2022/07/23 07:55:26;;;;;;;;;;;;;;;32.17;27.26;97493.92;110444;1244;59687;-70
2022/07/23 07:57:56;;;;;;;;;;;;;;;32.48;27.12;97493.66;110486;1247;59726;-69
2022/07/23 08:00:25;;;;;;;;;;;;;;;32.82;26.86;97497.81;110287;1247;71593;-69
2022/07/23 08:02:55;;;;;;;;;;;;;;;32.78;26.21;97496.08;110269;1247;68681;-70
2022/07/23 08:05:28;;;;;;;;;;;;;;;32.74;26.40;97499.16;110277;1247;69258;-70
2022/07/23 08:07:58;;;;;;;;;;;;;;;32.66;26.53;97493.33;110356;1247;59701;-70
2022/07/23 08:10:27;;;;;;;;;;;;;;;33.03;26.86;97492.39;110355;1247;59671;-70
2022/07/23 08:12:58;;;;;;;;;;;;;;;33.17;26.08;97492.81;110277;1247;71383;-69
2022/07/23 08:15:27;;;;;;;;;;;;;;;33.34;25.63;97491.70;110508;1247;67621;-75
2022/07/23 08:17:57;;;;;;;;;;;;;;;33.80;25.78;97487.65;110246;1247;69447;-69
2022/07/23 08:20:26;;;;;;;;;;;;;;;34.14;24.65;97492.80;110460;1247;59818;-70
2022/07/23 08:22:57;;;;;;;;;;;;;;;34.51;23.90;97485.95;110452;1247;59735;-70
2022/07/23 08:25:28;;;;;;;;;;;;;;;33.94;24.07;97488.84;110279;1247;70552;-70
2022/07/23 08:27:58;;;;;;;;;;;;;;;33.98;23.99;97487.20;110506;1247;68727;-71
2022/07/23 08:30:28;;;;;;;;;;;;;;;33.77;24.35;97488.70;110496;1245;69313;-74
2022/07/23 08:32:57;;;;;;;;;;;;;;;33.57;24.45;97482.17;110239;1247;59719;-70
2022/07/23 08:35:33;;;;;;;;;;;;;;;33.92;23.69;97478.92;110282;1247;60135;-71
2022/07/23 08:38:04;;;;;;;;;;;;;;;34.07;24.12;97480.98;110257;1247;70773;-71
2022/07/23 08:40:34;;;;;;;;;;;;;;;34.64;23.68;97476.62;110289;1247;68608;-70
2022/07/23 08:43:11;;;;;;;;;;;;;;;35.32;23.32;97477.14;110239;1245;69711;-75
2022/07/23 08:45:42;;;;;;;;;;;;;;;35.55;22.69;97477.20;110352;1246;59734;-68
2022/07/23 08:48:12;;;;;;;;;;;;;;;35.82;22.34;97477.80;110219;1247;59676;-70
2022/07/23 08:50:45;;;;;;;;;;;;;;;36.08;21.97;97468.83;110295;1247;70879;-74
2022/07/23 08:53:14;;;;;;;;;;;;;;;36.10;21.48;97470.73;110186;1248;67946;-73
2022/07/23 08:55:45;;;;;;;;;;;;;;;36.20;22.00;97470.98;110469;1247;69035;-73
2022/07/23 08:58:14;;;;;;;;;;;;;;;35.98;21.73;97471.40;110328;1247;59744;-71
2022/07/23 09:00:44;;;;;;;;;;;;;;;35.54;21.76;97476.60;110466;1247;59670;-74
2022/07/23 09:03:18;;;;;;;;;;;;;;;35.61;22.39;97477.48;110246;1247;70803;-73
2022/07/23 09:05:49;;;;;;;;;;;;;;;36.09;22.10;97470.23;110385;1247;67802;-69
2022/07/23 09:08:21;;;;;;;;;;;;;;;36.44;21.57;97469.37;110458;1247;69223;-72
2022/07/23 09:10:50;;;;;;;;;;;;;;;36.44;21.30;97469.55;110489;1246;59769;-73
2022/07/23 09:13:38;;;;;;;;;;;;;;;36.68;21.20;97465.37;110258;1247;59723;-72
2022/07/23 09:16:10;;;;;;;;;;;;;;;36.83;21.46;97463.52;110323;1247;71569;-71
2022/07/23 09:18:41;;;;;;;;;;;;;;;37.04;21.39;97464.20;110395;1245;68515;-73
2022/07/23 09:21:12;;;;;;;;;;;;;;;36.75;20.74;97461.11;110229;1248;68854;-72
2022/07/23 09:23:42;;;;;;;;;;;;;;;36.28;21.15;97459.21;110257;1248;59740;-73
2022/07/23 09:26:18;;;;;;;;;;;;;;;36.32;21.04;97455.39;110364;1247;59648;-71
2022/07/23 09:28:59;;;;;;;;;;;;;;;36.26;21.20;97455.79;110357;1247;70964;-70
2022/07/23 09:31:42;;;;;;;;;;;;;;;36.36;21.06;97454.14;110052;1250;68453;-71
2022/07/23 09:34:16;;;;;;;;;;;;;;;36.24;21.42;97451.89;109988;1250;69010;-72
2022/07/23 09:36:46;;;;;;;;;;;;;;;36.49;21.19;97447.77;110277;1247;59735;-71
2022/07/23 09:39:17;;;;;;;;;;;;;;;36.29;21.31;97445.33;110223;1247;59767;-72
2022/07/23 09:41:47;;;;;;;;;;;;;;;36.22;21.29;97441.60;110268;1247;69768;-72
2022/07/23 09:44:17;;;;;;;;;;;;;;;35.78;21.62;97446.20;110270;1247;68256;-71
2022/07/23 09:46:51;;;;;;;;;;;;;;;36.23;22.05;97439.80;110432;1246;69358;-74
2022/07/23 09:49:21;;;;;;;;;;;;;;;36.67;20.83;97434.39;110256;1247;59761;-72
2022/07/23 09:51:55;;;;;;;;;;;;;;;36.56;21.00;97427.85;110372;1247;59735;-70
2022/07/23 09:54:25;;;;;;;;;;;;;;;36.25;21.43;97429.19;110242;1246;71435;-72
2022/07/23 09:56:54;;;;;;;;;;;;;;;36.42;21.29;97431.70;110415;1246;67756;-73
2022/07/23 09:59:28;;;;;;;;;;;;;;;36.44;20.54;97425.88;110242;1247;69274;-71
2022/07/23 10:01:59;;;;;;;;;;;;;;;36.54;20.30;97421.70;110200;1247;59730;-71
2022/07/23 10:04:31;;;;;;;;;;;;;;;36.82;20.21;97422.02;110244;1247;59723;-70
2022/07/23 10:07:08;;;;;;;;;;;;;;;37.38;19.98;97421.27;110375;1247;71574;-71
2022/07/23 10:09:58;;;;;;;;;;;;;;;37.91;19.01;97419.38;110136;1247;67826;-70
2022/07/23 10:15:21;;;;;;;;;;;;;;;37.99;19.22;97418.10;110200;1247;59694;-76
2022/07/23 10:17:50;;;;;;;;;;;;;;;37.89;18.76;97417.44;110255;1247;59734;-70
2022/07/23 10:20:19;;;;;;;;;;;;;;;37.29;19.22;97414.91;110361;1247;70875;-69
2022/07/23 10:22:57;;;;;;;;;;;;;;;36.40;20.30;97407.32;110319;1247;68635;-71
2022/07/23 10:25:58;;;;;;;;;;;;;;;36.48;20.53;97408.45;110229;1247;69400;-70
2022/07/23 10:28:43;;;;;;;;;;;;;;;36.81;20.60;97400.58;109780;1248;59687;-70
2022/07/23 10:31:33;;;;;;;;;;;;;;;37.28;19.37;97401.61;110217;1247;59676;-70
2022/07/23 10:34:32;;;;;;;;;;;;;;;37.31;18.81;97396.39;110347;1247;71579;-71
2022/07/23 10:37:07;;;;;;;;;;;;;;;37.02;19.30;97390.11;110442;1247;67808;-74
2022/07/23 10:39:36;;;;;;;;;;;;;;;36.91;19.79;97391.10;110334;1247;68559;-69
2022/07/23 10:42:10;;;;;;;;;;;;;;;36.27;20.12;97387.21;110242;1247;59751;-76
2022/07/23 10:44:43;;;;;;;;;;;;;;;35.94;20.46;97383.00;110488;1247;59662;-71
2022/07/23 10:50:17;;;;;;;;;;;;;;;36.41;20.12;97374.23;110274;1247;67824;-70
2022/07/23 10:53:05;;;;;;;;;;;;;;;36.57;20.59;97377.52;110472;1247;69846;-70
2022/07/23 10:55:33;;;;;;;;;;;;;;;37.18;20.91;97376.93;110440;1247;59727;-69
2022/07/23 10:58:03;;;;;;;;;;;;;;;37.63;20.23;97376.80;110327;1247;59684;-69
2022/07/23 11:00:32;;;;;;;;;;;;;;;37.81;18.94;97376.20;110429;1245;71437;-70
2022/07/23 11:03:08;;;;;;;;;;;;;;;37.60;18.99;97367.45;110408;1247;68834;-69
2022/07/23 11:05:44;;;;;;;;;;;;;;;37.51;19.57;97368.27;110460;1247;68797;-72
2022/07/23 11:08:16;;;;;;;;;;;;;;;37.42;19.69;97367.72;110341;1247;59663;-70
2022/07/23 11:10:52;;;;;;;;;;;;;;;37.01;19.48;97369.32;110245;1247;59715;-75
2022/07/23 11:13:23;;;;;;;;;;;;;;;36.85;19.67;97364.55;110216;1248;71946;-69
2022/07/23 11:16:04;;;;;;;;;;;;;;;37.01;19.97;97360.96;110315;1247;67794;-69
2022/07/23 11:18:39;;;;;;;;;;;;;;;36.78;20.39;97358.00;110276;1247;69449;-68
2022/07/23 11:21:20;;;;;;;;;;;;;;;37.37;19.84;97354.23;110226;1245;59705;-70
2022/07/23 11:24:08;;;;;;;;;;;;;;;38.01;19.44;97343.15;110568;1247;59738;-72
2022/07/23 11:26:36;;;;;;;;;;;;;;;38.37;18.89;97342.75;110417;1247;70830;-72
2022/07/23 11:29:24;;;;;;;;;;;;;;;38.58;18.48;97339.19;110420;1247;68780;-70
2022/07/23 11:32:18;;;;;;;;;;;;;;;38.42;18.19;97332.52;110369;1247;68764;-73
2022/07/23 11:34:48;;;;;;;;;;;;;;;38.65;18.40;97328.07;110403;1247;59704;-71
2022/07/23 11:37:34;;;;;;;;;;;;;;;38.97;18.49;97328.33;110265;1247;59739;-72
2022/07/23 11:40:06;;;;;;;;;;;;;;;39.21;18.58;97322.88;110431;1246;71797;-72
2022/07/23 11:42:36;;;;;;;;;;;;;;;39.18;18.03;97315.77;110050;1250;67787;-72
2022/07/23 11:45:07;;;;;;;;;;;;;;;39.19;18.12;97310.70;110454;1246;69145;-71
2022/07/23 11:47:36;;;;;;;;;;;;;;;38.94;18.00;97308.10;110458;1247;59743;-71
2022/07/23 11:50:06;;;;;;;;;;;;;;;38.40;18.66;97303.34;110207;1247;59701;-71
2022/07/23 11:52:35;;;;;;;;;;;;;;;38.36;18.64;97302.89;110156;1247;71598;-72
2022/07/23 11:55:06;;;;;;;;;;;;;;;37.03;18.92;97300.65;109934;1248;68642;-68
2022/07/23 11:57:38;;;;;;;;;;;;;;;37.42;19.20;97296.78;110342;1247;68831;-72
2022/07/23 12:00:07;;;;;;;;;;;;;;;37.91;18.94;97292.75;110298;1245;59699;-69
2022/07/23 12:02:40;;;;;;;;;;;;;;;37.95;18.76;97285.63;110244;1247;59661;-70
2022/07/23 12:05:13;;;;;;;;;;;;;;;38.27;18.55;97280.95;110384;1247;71584;-70
2022/07/23 12:07:44;;;;;;;;;;;;;;;38.51;18.19;97279.29;110371;1246;68718;-72
2022/07/23 12:10:14;;;;;;;;;;;;;;;38.73;18.31;97279.46;110430;1246;67836;-69
2022/07/23 12:12:57;;;;;;;;;;;;;;;38.39;17.81;97276.72;110315;1246;59709;-71
2022/07/23 12:15:29;;;;;;;;;;;;;;;38.48;18.09;97274.96;110480;1245;59676;-70
2022/07/23 12:17:58;;;;;;;;;;;;;;;38.59;17.61;97271.26;110257;1248;71602;-70
2022/07/23 12:20:30;;;;;;;;;;;;;;;38.51;17.08;97271.00;110173;1247;67796;-71
2022/07/23 12:23:00;;;;;;;;;;;;;;;38.71;17.30;97268.68;110118;1248;68676;-69
2022/07/23 12:25:33;;;;;;;;;;;;;;;38.84;17.33;97272.98;110436;1247;59621;-70
2022/07/23 12:28:02;;;;;;;;;;;;;;;38.27;16.89;97268.45;110487;1246;59695;-69
2022/07/23 12:30:33;;;;;;;;;;;;;;;38.01;17.30;97267.34;110504;1247;70811;-70
2022/07/23 12:33:04;;;;;;;;;;;;;;;38.15;17.84;97264.14;110246;1247;68719;-70
2022/07/23 12:35:44;;;;;;;;;;;;;;;38.43;17.43;97260.16;110216;1247;69446;-70
2022/07/23 12:38:18;;;;;;;;;;;;;;;38.59;16.93;97254.52;110392;1245;59708;-71
2022/07/23 12:40:48;;;;;;;;;;;;;;;38.76;17.64;97248.52;110018;1247;59625;-74
2022/07/23 12:43:25;;;;;;;;;;;;;;;39.09;17.83;97242.45;110249;1247;70613;-70
2022/07/23 12:45:57;;;;;;;;;;;;;;;39.20;16.82;97240.96;110275;1247;67618;-70
2022/07/23 12:48:28;;;;;;;;;;;;;;;39.21;16.47;97241.71;110546;1247;68766;-74
2022/07/23 12:50:57;;;;;;;;;;;;;;;39.17;17.08;97230.85;110550;1245;59769;-69
2022/07/23 12:53:45;;;;;;;;;;;;;;;38.89;17.01;97234.10;110570;1247;60017;-72
2022/07/23 12:56:17;;;;;;;;;;;;;;;38.91;17.43;97222.15;110398;1247;71524;-69
2022/07/23 12:58:48;;;;;;;;;;;;;;;38.74;17.01;97223.06;110532;1247;66990;-69
2022/07/23 13:01:32;;;;;;;;;;;;;;;38.40;16.91;97225.00;110284;1246;68618;-74
2022/07/23 13:04:06;;;;;;;;;;;;;;;37.65;17.44;97220.98;110145;1247;59764;-70